Time;durP1;ratioP1;P1;durP2;ratioP2;P2;SDS_P1;SDS_P2;PMS_P1;PMS_P2;Temp;Humidity;BMP_temperature;BMP_pressure;BME280_temperature;BME280_humidity;BME280_pressure;Samples;Min_cycle;Max_cycle;Signal;HPM_P1;HPM_P2
2023/12/02 16:27:48;;;;;;;31.10;10.82;;;16.30;69.80;;;;;;5172080;27;20311;-72
2023/12/02 16:33:04;;;;;;;33.35;10.40;;;14.20;78.30;;;;;;5111473;27;20313;-73
2023/12/02 16:35:30;;;;;;;27.30;9.80;;;13.80;82.00;;;;;;5091397;28;20108;-72
2023/12/02 16:37:56;;;;;;;59.33;26.42;;;13.40;84.50;;;;;;5091302;28;20028;-73
2023/12/02 16:40:21;;;;;;;25.05;10.35;;;13.10;87.30;;;;;;5091403;28;20048;-73
2023/12/02 16:42:47;;;;;;;23.10;8.10;;;13.00;90.40;;;;;;5090943;28;20058;-72
2023/12/02 16:45:19;;;;;;;24.42;8.57;;;12.70;94.60;;;;;;5090515;28;20467;-73
2023/12/02 16:47:47;;;;;;;31.92;12.75;;;12.50;99.90;;;;;;5090987;28;20028;-73
2023/12/02 16:50:29;;;;;;;50.40;18.88;;;12.50;99.90;;;;;;5090616;28;20028;-72
2023/12/02 16:53:01;;;;;;;24.48;11.02;;;12.30;99.90;;;;;;5090861;28;20025;-73
2023/12/02 16:55:33;;;;;;;18.60;8.88;;;12.30;99.90;;;;;;5099477;28;20024;-73
2023/12/02 16:57:59;;;;;;;29.13;11.10;;;12.20;99.90;;;;;;5070624;28;20036;-73
2023/12/02 17:00:40;;;;;;;23.33;9.68;;;12.10;99.90;;;;;;5084271;28;20016;-71
2023/12/02 17:03:07;;;;;;;22.52;10.00;;;12.00;99.90;;;;;;5094423;28;20462;-73
2023/12/02 17:05:33;;;;;;;27.05;13.20;;;11.90;99.90;;;;;;5084070;28;20100;-74
2023/12/02 17:08:23;;;;;;;35.20;12.90;;;11.90;99.90;;;;;;5088935;28;20428;-73
2023/12/02 17:11:04;;;;;;;18.15;8.30;;;11.90;99.90;;;;;;5090858;28;20046;-74
2023/12/02 17:13:50;;;;;;;19.40;8.70;;;11.80;99.90;;;;;;5090224;28;20035;-74
2023/12/02 17:16:34;;;;;;;16.13;8.77;;;11.70;99.90;;;;;;5090199;28;20024;-73
2023/12/02 17:18:59;;;;;;;22.35;8.30;;;11.70;99.90;;;;;;5082172;28;20025;-72
2023/12/02 17:21:31;;;;;;;36.00;16.40;;;11.70;99.90;;;;;;5070091;28;20033;-72
2023/12/02 17:23:57;;;;;;;;;;;11.60;99.90;;;;;;5073339;28;20107;-73
2023/12/02 17:26:28;;;;;;;31.67;14.57;;;11.60;99.90;;;;;;5089578;28;19973;-73
2023/12/02 17:28:54;;;;;;;25.02;11.43;;;11.60;99.90;;;;;;5088707;28;20024;-75
2023/12/02 17:31:20;;;;;;;43.15;18.65;;;11.60;99.90;;;;;;5088188;28;20387;-73
2023/12/02 17:33:46;;;;;;;37.97;16.05;;;11.60;99.90;;;;;;5089392;28;20035;-73
2023/12/02 17:36:12;;;;;;;35.30;16.25;;;11.60;99.90;;;;;;5088911;28;20498;-73
2023/12/02 17:38:38;;;;;;;34.55;15.55;;;11.60;99.90;;;;;;5089499;28;20028;-73
2023/12/02 17:41:04;;;;;;;28.30;13.55;;;11.60;99.90;;;;;;5089168;28;20067;-73
2023/12/02 17:43:30;;;;;;;96.80;43.28;;;11.60;99.90;;;;;;5080700;28;20048;-72
2023/12/02 17:45:57;;;;;;;37.38;17.60;;;11.60;99.90;;;;;;5076040;28;20028;-73
2023/12/02 17:48:23;;;;;;;57.08;25.23;;;11.60;99.90;;;;;;5075448;28;20363;-74
2023/12/02 17:50:49;;;;;;;34.88;18.25;;;11.60;99.90;;;;;;5075632;28;20025;-73
2023/12/02 17:53:15;;;;;;;43.60;23.98;;;11.50;99.90;;;;;;5073721;28;20360;-73
2023/12/02 17:55:41;;;;;;;58.95;27.95;;;11.50;99.90;;;;;;5086249;28;20024;-74
2023/12/02 17:58:08;;;;;;;35.05;18.02;;;11.50;99.90;;;;;;5079779;28;20032;-73
2023/12/02 18:00:34;;;;;;;32.28;16.67;;;11.50;99.90;;;;;;5055518;28;20032;-74
2023/12/02 18:03:00;;;;;;;34.05;12.18;;;11.50;99.90;;;;;;5055339;28;20025;-73
2023/12/02 18:05:26;;;;;;;33.40;13.02;;;11.50;99.90;;;;;;5055810;28;20024;-74
2023/12/02 18:07:51;;;;;;;46.10;15.43;;;11.40;99.90;;;;;;5073797;28;20047;-73
2023/12/02 18:10:17;;;;;;;25.92;10.55;;;11.50;99.90;;;;;;5073492;28;20031;-75
2023/12/02 18:12:43;;;;;;;27.73;11.80;;;11.50;99.90;;;;;;5075632;28;20115;-74
2023/12/02 18:15:09;;;;;;;26.95;8.88;;;11.30;99.90;;;;;;5075175;28;20033;-74
2023/12/02 18:17:35;;;;;;;29.83;12.07;;;11.30;99.90;;;;;;5074925;28;20039;-74
2023/12/02 18:20:01;;;;;;;41.42;10.77;;;11.20;99.90;;;;;;5074546;28;20048;-72
2023/12/02 18:22:27;;;;;;;28.38;10.23;;;11.30;99.90;;;;;;5073092;28;20029;-75
2023/12/02 18:24:52;;;;;;;33.50;13.30;;;11.20;99.90;;;;;;5055299;28;20440;-74
2023/12/02 18:27:21;;;;;;;21.40;9.18;;;11.10;99.90;;;;;;5072218;28;20024;-75
2023/12/02 18:29:47;;;;;;;37.20;14.55;;;11.10;99.90;;;;;;5074784;28;20028;-73
2023/12/02 18:32:14;;;;;;;35.40;15.18;;;11.00;99.90;;;;;;5087750;28;20085;-74
2023/12/02 18:34:40;;;;;;;27.02;11.55;;;11.10;99.90;;;;;;5095170;28;20022;-73
2023/12/02 18:37:06;;;;;;;42.83;25.05;;;11.10;99.90;;;;;;5094611;28;20028;-73
2023/12/02 18:39:32;;;;;;;24.70;9.18;;;11.10;99.90;;;;;;5094917;28;20039;-73
2023/12/02 18:41:57;;;;;;;22.05;10.48;;;11.50;99.90;;;;;;5095213;28;20031;-73
2023/12/02 18:44:23;;;;;;;23.75;9.45;;;11.80;99.90;;;;;;5094636;28;20426;-71
2023/12/02 18:46:49;;;;;;;21.13;7.85;;;12.00;99.90;;;;;;5094716;28;20024;-73
2023/12/02 18:49:15;;;;;;;39.33;16.42;;;12.10;99.90;;;;;;5094350;28;20020;-72
2023/12/02 18:51:40;;;;;;;26.88;12.43;;;12.10;99.90;;;;;;5094731;28;20084;-74
2023/12/02 18:54:07;;;;;;;34.70;14.10;;;12.00;99.90;;;;;;5093562;28;20020;-73
2023/12/02 18:56:33;;;;;;;29.20;13.75;;;12.00;99.90;;;;;;5102694;28;20031;-74
2023/12/02 18:58:59;;;;;;;34.03;13.63;;;11.90;99.90;;;;;;5074250;28;20028;-73
2023/12/02 19:01:25;;;;;;;29.88;12.98;;;11.90;99.90;;;;;;5074626;28;20028;-73
2023/12/02 19:03:54;;;;;;;22.20;9.35;;;11.80;99.90;;;;;;5074084;28;20028;-74
2023/12/02 19:06:21;;;;;;;20.42;9.98;;;11.30;99.90;;;;;;5090026;28;20039;-73
2023/12/02 19:08:48;;;;;;;22.05;10.52;;;10.40;99.90;;;;;;5094628;28;20056;-74
2023/12/02 19:11:14;;;;;;;92.90;14.43;;;9.70;99.90;;;;;;5075532;28;20050;-73
2023/12/02 19:23:08;;;;;;;23.23;12.90;;;7.40;99.90;;;;;;5088188;28;20382;-74
2023/12/02 19:25:34;;;;;;;27.83;14.00;;;7.20;99.90;;;;;;5090283;28;20459;-73
2023/12/02 19:27:59;;;;;;;32.97;16.98;;;7.10;99.90;;;;;;5089307;28;20038;-74
2023/12/02 19:30:25;;;;;;;38.63;20.00;;;6.90;99.90;;;;;;5083262;28;20103;-75
2023/12/02 19:32:51;;;;;;;38.25;21.00;;;6.80;99.90;;;;;;5073627;28;20451;-73
2023/12/02 19:35:17;;;;;;;40.05;21.98;;;6.70;99.90;;;;;;5089892;28;20028;-74
2023/12/02 19:37:43;;;;;;;43.88;22.88;;;6.40;99.90;;;;;;5090641;28;20025;-75
2023/12/02 19:40:09;;;;;;;47.60;24.05;;;6.50;99.90;;;;;;5090008;28;20028;-74
2023/12/02 19:42:35;;;;;;;42.90;22.45;;;6.40;99.90;;;;;;5090060;28;20024;-74
2023/12/02 19:45:00;;;;;;;47.45;23.23;;;6.20;99.90;;;;;;5090060;28;20097;-74
2023/12/02 19:47:26;;;;;;;50.88;24.63;;;6.10;99.90;;;;;;5090369;28;20028;-75
2023/12/02 20:02:33;;;;;;;168.82;61.80;;;5.90;99.90;;;;;;5123720;27;20328;-74
2023/12/02 20:04:59;;;;;;;270.73;95.50;;;6.10;99.90;;;;;;5110455;28;20027;-74
2023/12/02 20:07:25;;;;;;;178.38;66.57;;;6.00;99.90;;;;;;5110653;28;20438;-73
2023/12/02 20:09:51;;;;;;;230.25;88.50;;;6.00;99.90;;;;;;5110826;28;20055;-73
2023/12/02 20:12:17;;;;;;;107.32;52.42;;;6.00;99.90;;;;;;5110439;28;20489;-75
2023/12/02 20:14:43;;;;;;;141.00;66.30;;;6.00;99.90;;;;;;5110547;28;20020;-73
2023/12/02 20:17:09;;;;;;;96.55;49.00;;;6.00;99.90;;;;;;5110235;28;20046;-73
2023/12/02 20:19:35;;;;;;;181.27;80.18;;;6.10;99.90;;;;;;5110633;28;20047;-75
2023/12/02 20:22:01;;;;;;;111.97;51.03;;;6.10;99.90;;;;;;5110152;28;20069;-71
2023/12/02 20:24:27;;;;;;;141.85;58.22;;;6.00;99.90;;;;;;5110453;28;20055;-73
2023/12/02 20:26:53;;;;;;;217.80;86.07;;;6.00;99.90;;;;;;5110623;28;20053;-75
2023/12/02 20:29:18;;;;;;;133.02;57.20;;;5.90;99.90;;;;;;5110097;28;20107;-74
2023/12/02 20:31:44;;;;;;;162.77;71.05;;;5.90;99.90;;;;;;5110395;28;20108;-76
2023/12/02 20:34:10;;;;;;;83.30;40.88;;;5.80;99.90;;;;;;5109633;28;20488;-74
2023/12/02 20:36:38;;;;;;;63.25;34.15;;;5.80;99.90;;;;;;5110503;28;20099;-74
2023/12/02 20:39:06;;;;;;;58.88;31.25;;;5.80;99.90;;;;;;5109721;28;20028;-74
2023/12/02 20:41:32;;;;;;;52.45;26.85;;;5.80;99.90;;;;;;5109796;28;20023;-73
2023/12/02 20:43:58;;;;;;;60.45;32.42;;;5.70;99.90;;;;;;5109993;28;20110;-73
2023/12/02 20:46:24;;;;;;;59.13;31.30;;;5.80;99.90;;;;;;5109795;28;20112;-73
2023/12/02 20:48:51;;;;;;;40.95;22.40;;;5.90;99.90;;;;;;5109733;28;20036;-74
2023/12/02 20:51:17;;;;;;;47.83;25.45;;;5.90;99.90;;;;;;5109521;28;20020;-73
2023/12/02 20:53:43;;;;;;;55.40;31.60;;;5.90;99.90;;;;;;5109791;28;20028;-76
2023/12/02 20:56:09;;;;;;;37.83;21.40;;;5.80;99.90;;;;;;5109678;28;20103;-74
2023/12/02 20:58:35;;;;;;;50.85;27.42;;;5.70;99.90;;;;;;5109989;28;20604;-73
2023/12/02 21:01:00;;;;;;;50.83;24.63;;;5.70;99.90;;;;;;5109311;28;20101;-73
2023/12/02 21:03:26;;;;;;;53.30;25.50;;;5.60;99.90;;;;;;5109890;28;20028;-72
2023/12/02 21:05:52;;;;;;;64.50;30.73;;;5.50;99.90;;;;;;5109497;28;20032;-72
2023/12/02 21:08:18;;;;;;;42.65;24.23;;;5.50;99.90;;;;;;5109553;28;20067;-73
2023/12/02 21:10:43;;;;;;;55.63;26.05;;;5.50;99.90;;;;;;5109308;28;20032;-73
2023/12/02 21:13:10;;;;;;;45.55;22.70;;;5.40;99.90;;;;;;5081774;28;20024;-71
2023/12/02 21:15:36;;;;;;;52.15;24.52;;;5.40;99.90;;;;;;5095865;28;20097;-72
2023/12/02 21:18:03;;;;;;;45.63;21.08;;;5.40;99.90;;;;;;5095612;28;20024;-74
2023/12/02 21:20:31;;;;;;;53.40;25.92;;;5.50;99.90;;;;;;5095538;28;20024;-73
2023/12/02 21:22:58;;;;;;;49.88;22.98;;;5.50;99.90;;;;;;5077695;28;20039;-74
2023/12/02 21:25:24;;;;;;;45.88;23.55;;;5.40;99.90;;;;;;5095663;28;20112;-75
2023/12/02 21:27:50;;;;;;;50.47;23.70;;;5.40;99.90;;;;;;5095809;28;20028;-73
2023/12/02 21:30:22;;;;;;;48.72;23.00;;;5.40;99.90;;;;;;5095318;28;20028;-72
2023/12/02 21:32:48;;;;;;;;;;;5.50;99.90;;;;;;5096318;28;20079;-76
2023/12/02 21:35:17;;;;;;;43.38;21.60;;;5.40;99.90;;;;;;5077152;28;19912;-74
2023/12/02 21:37:43;;;;;;;46.05;23.13;;;5.10;99.90;;;;;;5095222;28;20034;-74
2023/12/02 21:40:09;;;;;;;48.85;23.42;;;5.40;99.90;;;;;;5095387;28;20099;-75
2023/12/02 21:42:34;;;;;;;47.80;24.23;;;5.30;99.90;;;;;;5095507;28;20092;-73
2023/12/02 21:45:00;;;;;;;46.42;22.23;;;5.30;99.90;;;;;;5095038;28;20028;-73
2023/12/02 21:47:27;;;;;;;49.10;24.38;;;5.20;99.90;;;;;;5095158;28;20028;-73
2023/12/02 21:49:52;;;;;;;48.08;21.73;;;5.20;99.90;;;;;;5095526;28;20438;-75
2023/12/02 21:52:18;;;;;;;38.67;20.40;;;5.20;99.90;;;;;;5095439;28;20024;-74
2023/12/02 21:54:45;;;;;;;41.38;20.20;;;5.10;99.90;;;;;;5095486;28;20103;-72
2023/12/02 21:57:12;;;;;;;31.08;16.70;;;5.00;99.90;;;;;;5094816;28;20027;-72
2023/12/02 21:59:38;;;;;;;37.47;20.30;;;5.00;99.90;;;;;;5095158;28;20020;-71
2023/12/02 22:02:21;;;;;;;40.42;20.90;;;5.00;99.90;;;;;;5094472;28;20051;-73
2023/12/02 22:04:47;;;;;;;43.40;20.73;;;5.00;99.90;;;;;;5094781;28;20425;-73
2023/12/02 22:07:23;;;;;;;43.28;21.58;;;5.40;99.90;;;;;;5094673;28;20115;-72
2023/12/02 22:09:49;;;;;;;40.60;20.60;;;5.00;99.90;;;;;;5094625;28;20028;-75
2023/12/02 22:12:42;;;;;;;35.25;16.92;;;5.00;99.90;;;;;;5094286;28;20028;-72
2023/12/02 22:15:29;;;;;;;50.15;23.10;;;4.90;99.90;;;;;;5094749;28;20028;-73
2023/12/02 22:17:58;;;;;;;47.25;19.33;;;4.90;99.90;;;;;;5094511;28;20024;-73
2023/12/02 22:20:25;;;;;;;50.67;23.05;;;5.00;99.90;;;;;;5094260;28;20020;-74
2023/12/02 22:22:55;;;;;;;40.90;20.20;;;5.00;99.90;;;;;;5094583;28;20447;-73
2023/12/02 22:25:24;;;;;;;33.75;17.48;;;4.90;99.90;;;;;;5093513;28;20031;-73
2023/12/02 22:27:58;;;;;;;37.80;18.23;;;4.80;99.90;;;;;;5094630;28;20020;-74
2023/12/02 22:30:24;;;;;;;39.67;19.15;;;4.80;99.90;;;;;;5095532;28;20051;-71
2023/12/02 22:33:00;;;;;;;36.45;18.08;;;4.90;99.90;;;;;;5095319;28;20028;-72
2023/12/02 22:35:28;;;;;;;33.80;16.70;;;4.80;99.90;;;;;;5094604;28;20474;-72
2023/12/02 22:37:57;;;;;;;34.20;17.33;;;4.80;99.90;;;;;;5095124;28;20066;-73
2023/12/02 22:40:34;;;;;;;47.05;18.88;;;4.80;99.90;;;;;;5095076;28;20030;-73
2023/12/02 22:43:04;;;;;;;40.67;18.38;;;4.70;99.90;;;;;;5095153;28;20036;-73
2023/12/02 22:45:31;;;;;;;37.35;18.30;;;4.60;99.90;;;;;;5095295;28;20024;-72
2023/12/02 22:47:57;;;;;;;35.53;15.80;;;4.60;99.90;;;;;;5095076;28;20020;-74
2023/12/02 22:50:23;;;;;;;31.50;15.20;;;4.60;99.90;;;;;;5094788;28;20035;-71
2023/12/02 22:52:49;;;;;;;41.33;18.00;;;4.60;99.90;;;;;;5094633;28;20065;-73
2023/12/02 22:55:54;;;;;;;32.85;18.83;;;4.70;99.90;;;;;;5094214;28;20012;-72
2023/12/02 22:58:20;;;;;;;41.55;19.95;;;4.70;99.90;;;;;;5058473;28;20035;-73
2023/12/02 23:00:47;;;;;;;38.22;19.77;;;4.70;99.90;;;;;;5093388;28;20075;-74
2023/12/02 23:03:15;;;;;;;49.03;22.58;;;4.70;99.90;;;;;;5094131;28;20024;-73
2023/12/02 23:05:41;;;;;;;33.40;15.93;;;4.70;99.90;;;;;;5094878;28;20027;-72
2023/12/02 23:08:10;;;;;;;42.95;20.42;;;4.60;99.90;;;;;;5094328;28;20451;-72
2023/12/02 23:10:39;;;;;;;35.40;16.55;;;4.60;99.90;;;;;;5074110;28;20039;-73
2023/12/02 23:13:45;;;;;;;38.83;17.30;;;4.60;99.90;;;;;;5092183;28;20020;-73
2023/12/02 23:16:38;;;;;;;33.70;14.65;;;4.70;99.90;;;;;;5094367;28;20059;-73
2023/12/02 23:19:06;;;;;;;37.20;16.80;;;4.60;99.90;;;;;;5094186;28;20028;-71
2023/12/02 23:21:33;;;;;;;33.80;15.10;;;4.60;99.90;;;;;;5094558;28;20028;-73
2023/12/02 23:24:00;;;;;;;36.70;19.00;;;4.50;99.90;;;;;;5075757;28;20060;-72
2023/12/02 23:26:26;;;;;;;31.60;15.40;;;4.40;99.90;;;;;;5094224;28;20043;-74
2023/12/02 23:28:51;;;;;;;36.20;17.35;;;4.40;99.90;;;;;;5094319;28;20028;-73
2023/12/02 23:31:17;;;;;;;41.45;21.65;;;4.30;99.90;;;;;;5093729;28;20032;-74
2023/12/02 23:33:43;;;;;;;31.10;15.13;;;4.40;99.90;;;;;;5093836;28;20058;-73
2023/12/02 23:36:09;;;;;;;32.00;15.70;;;4.30;99.90;;;;;;5093722;28;20020;-74
2023/12/02 23:38:36;;;;;;;26.27;12.80;;;4.50;99.90;;;;;;5094025;28;20451;-74
2023/12/02 23:41:03;;;;;;;36.30;20.75;;;;;;;;;;5093554;28;20031;-73
2023/12/02 23:43:35;;;;;;;33.70;16.00;;;4.40;99.90;;;;;;5093760;28;20036;-74
2023/12/02 23:46:03;;;;;;;33.47;15.20;;;4.30;99.90;;;;;;5094075;28;20028;-72
2023/12/02 23:48:28;;;;;;;34.60;15.32;;;4.30;99.90;;;;;;5093849;28;20055;-73
2023/12/02 23:50:54;;;;;;;40.15;18.17;;;4.30;99.90;;;;;;5093833;28;20500;-72
2023/12/02 23:53:20;;;;;;;33.03;17.40;;;4.30;99.90;;;;;;5093858;28;20450;-73
2023/12/02 23:55:45;;;;;;;35.75;18.25;;;4.30;99.90;;;;;;5093872;28;20447;-74
2023/12/02 23:58:12;;;;;;;49.35;23.77;;;4.30;99.90;;;;;;5094034;28;20016;-74
